createdAt,value
2022-10-23T00:01:28.254Z,101381.06
2022-10-23T00:04:01.082Z,101371.38
2022-10-23T00:06:28.815Z,101370.50
2022-10-23T00:08:55.603Z,101370.44
2022-10-23T00:11:24.486Z,101364.31
2022-10-23T00:13:53.207Z,101369.56
2022-10-23T00:16:19.691Z,101377.50
2022-10-23T00:18:46.217Z,101372.19
2022-10-23T00:21:15.211Z,101376.59
2022-10-23T00:23:41.758Z,101371.31
2022-10-23T00:26:10.905Z,101386.25
2022-10-23T00:28:38.045Z,101380.97
2022-10-23T00:31:05.719Z,101379.22
2022-10-23T00:33:33.003Z,101370.44
2022-10-23T00:35:59.341Z,101360.72
2022-10-23T00:38:25.729Z,101359.88
2022-10-23T00:40:52.208Z,101364.25
2022-10-23T00:43:25.385Z,101364.25
2022-10-23T00:45:52.541Z,101366.00
2022-10-23T00:48:19.661Z,101365.13
2022-10-23T00:50:47.641Z,101358.06
2022-10-23T00:53:15.361Z,101356.31
2022-10-23T00:55:46.805Z,101347.50
2022-10-23T00:58:17.445Z,101352.78
2022-10-23T01:00:48.057Z,101349.25
2022-10-23T01:03:16.443Z,101356.31
2022-10-23T01:06:00.406Z,101351.91
2022-10-23T01:08:46.813Z,101356.28
2022-10-23T01:11:15.827Z,101359.81
2022-10-23T01:16:59.666Z,101344.84
2022-10-23T01:19:59.634Z,101350.13
2022-10-23T01:22:38.220Z,101341.28
2022-10-23T01:25:25.806Z,101340.41
2022-10-23T01:27:57.932Z,101342.19
2022-10-23T01:30:24.347Z,101347.44
2022-10-23T01:32:56.258Z,101345.69
2022-10-23T01:35:32.555Z,101341.28
2022-10-23T01:38:19.112Z,101337.75
2022-10-23T01:41:17.278Z,101332.47
2022-10-23T01:44:00.083Z,101327.19
2022-10-23T01:46:27.966Z,101334.22
2022-10-23T01:48:56.758Z,101323.66
2022-10-23T01:51:27.018Z,101320.13
2022-10-23T01:53:57.171Z,101321.03
2022-10-23T01:56:28.353Z,101318.38
2022-10-23T01:58:57.638Z,101322.78
2022-10-23T02:01:28.058Z,101312.22
2022-10-23T02:06:28.951Z,101308.69
2022-10-23T02:08:56.263Z,101303.41
2022-10-23T02:11:23.069Z,101298.16
2022-10-23T02:14:45.815Z,101286.69
2022-10-23T02:17:16.896Z,101293.72
2022-10-23T02:19:50.302Z,101292.81
2022-10-23T02:22:25.222Z,101291.06
2022-10-23T02:24:57.838Z,101284.91
2022-10-23T02:27:31.738Z,101280.50
2022-10-23T02:30:05.260Z,101265.53
2022-10-23T02:32:33.249Z,101268.19
2022-10-23T02:34:59.608Z,101265.53
2022-10-23T02:37:26.136Z,101269.94
2022-10-23T02:39:54.229Z,101269.06
2022-10-23T02:42:30.760Z,101266.44
2022-10-23T02:45:06.028Z,101276.13
2022-10-23T02:48:26.434Z,101266.44
2022-10-23T02:51:03.109Z,101262.03
2022-10-23T02:53:40.534Z,101264.66
2022-10-23T02:56:19.182Z,101265.56
2022-10-23T02:58:59.535Z,101269.06
2022-10-23T03:01:39.049Z,101258.50
2022-10-23T03:04:07.666Z,101258.50
2022-10-23T03:06:34.238Z,101248.81
2022-10-23T03:09:08.462Z,101243.53
2022-10-23T03:11:35.180Z,101248.81
2022-10-23T03:14:01.955Z,101250.56
2022-10-23T03:16:28.437Z,101246.19
2022-10-23T03:18:55.393Z,101235.63
2022-10-23T03:21:21.826Z,101234.75
2022-10-23T03:23:48.253Z,101233.00
2022-10-23T03:26:14.586Z,101234.75
2022-10-23T03:28:40.922Z,101233.88
2022-10-23T03:31:07.266Z,101230.34
2022-10-23T03:33:33.673Z,101225.94
2022-10-23T03:35:59.993Z,101218.94
2022-10-23T03:38:26.364Z,101220.69
2022-10-23T03:40:52.679Z,101222.44
2022-10-23T03:43:18.994Z,101217.16
2022-10-23T03:45:45.315Z,101213.63
2022-10-23T03:48:11.701Z,101210.13
2022-10-23T03:50:38.191Z,101214.50
2022-10-23T03:53:04.554Z,101210.09
2022-10-23T03:55:31.226Z,101198.69
2022-10-23T03:57:57.564Z,101196.00
2022-10-23T04:00:23.947Z,101185.50
2022-10-23T04:02:50.314Z,101171.44
2022-10-23T04:05:16.789Z,101166.16
2022-10-23T04:07:43.120Z,101165.28
2022-10-23T04:10:09.803Z,101171.38
2022-10-23T04:12:36.346Z,101168.75
2022-10-23T04:15:02.737Z,101160.88
2022-10-23T04:17:29.142Z,101156.50
2022-10-23T04:19:55.758Z,101154.72
2022-10-23T04:22:24.744Z,101158.25
2022-10-23T04:24:53.891Z,101151.16
2022-10-23T04:27:22.622Z,101150.31
2022-10-23T04:29:49.218Z,101152.06
2022-10-23T04:32:18.147Z,101140.59
2022-10-23T04:34:44.476Z,101137.09
2022-10-23T04:37:10.825Z,101132.69
2022-10-23T04:39:37.858Z,101132.69
2022-10-23T04:42:04.340Z,101136.22
2022-10-23T04:44:30.686Z,101137.09
2022-10-23T04:46:57.078Z,101137.09
2022-10-23T04:49:23.415Z,101137.97
2022-10-23T04:51:49.776Z,101130.94
2022-10-23T04:54:16.154Z,101119.50
2022-10-23T04:56:42.594Z,101114.22
2022-10-23T04:59:09.370Z,101115.13
2022-10-23T05:01:36.512Z,101120.38
2022-10-23T05:04:03.301Z,101109.81
2022-10-23T05:06:29.673Z,101116.88
2022-10-23T05:08:56.179Z,101122.13
2022-10-23T05:11:22.587Z,101121.28
2022-10-23T05:13:49.007Z,101125.66
2022-10-23T05:16:38.035Z,101117.75
2022-10-23T05:19:07.164Z,101123.09
2022-10-23T05:21:35.953Z,101109.88
2022-10-23T05:24:02.483Z,101111.66
2022-10-23T05:26:30.605Z,101113.41
2022-10-23T05:28:56.962Z,101116.06
2022-10-23T05:31:25.245Z,101109.91
2022-10-23T05:33:54.199Z,101111.66
2022-10-23T05:36:22.245Z,101104.63
2022-10-23T05:38:48.756Z,101100.22
2022-10-23T05:41:15.170Z,101102.00
2022-10-23T05:43:41.533Z,101097.59
2022-10-23T05:46:07.867Z,101093.19
2022-10-23T05:48:35.447Z,101094.97
2022-10-23T05:51:06.694Z,101097.59
2022-10-23T05:53:35.182Z,101094.09
2022-10-23T05:56:07.035Z,101096.75
2022-10-23T05:58:34.041Z,101099.38
2022-10-23T06:01:04.963Z,101087.06
2022-10-23T06:03:31.342Z,101086.19
2022-10-23T06:05:57.669Z,101081.78
2022-10-23T06:08:24.353Z,101078.25
2022-10-23T06:10:50.814Z,101088.81
2022-10-23T06:13:17.272Z,101078.28
2022-10-23T06:15:43.627Z,101085.28
2022-10-23T06:18:10.054Z,101086.19
2022-10-23T06:20:40.254Z,101081.78
2022-10-23T06:23:07.332Z,101072.97
2022-10-23T06:25:35.977Z,101064.16
2022-10-23T06:28:02.293Z,101058.88
2022-10-23T06:30:28.788Z,101061.53
2022-10-23T06:32:55.437Z,101058.84
2022-10-23T06:35:21.798Z,101064.13
2022-10-23T06:37:48.154Z,101063.25
2022-10-23T06:40:14.560Z,101066.81
2022-10-23T06:42:41.330Z,101058.88
2022-10-23T06:45:08.136Z,101050.06
2022-10-23T06:47:34.449Z,101045.66
2022-10-23T06:50:00.807Z,101045.66
2022-10-23T06:52:47.634Z,101050.06
2022-10-23T06:55:14.860Z,101049.16
2022-10-23T06:57:43.125Z,101044.78
2022-10-23T07:00:10.417Z,101044.75
2022-10-23T07:02:36.973Z,101037.75
2022-10-23T07:05:04.161Z,101033.34
2022-10-23T07:07:31.125Z,101037.72
2022-10-23T07:09:57.716Z,101043.88
2022-10-23T07:12:24.357Z,101039.47
2022-10-23T07:14:50.785Z,101046.53
2022-10-23T07:17:19.865Z,101047.41
2022-10-23T07:19:47.223Z,101049.13
2022-10-23T07:22:15.883Z,101042.97
2022-10-23T07:24:42.605Z,101039.44
2022-10-23T07:27:09.606Z,101045.59
2022-10-23T07:29:36.005Z,101036.78
2022-10-23T07:32:02.433Z,101028.84
2022-10-23T07:34:28.789Z,101025.31
2022-10-23T07:36:56.752Z,101028.84
2022-10-23T07:39:23.331Z,101033.25
2022-10-23T07:41:49.998Z,101036.78
2022-10-23T07:44:16.461Z,101038.53
2022-10-23T07:46:42.821Z,101024.44
2022-10-23T07:49:11.359Z,101014.72
2022-10-23T07:51:37.815Z,101005.91
2022-10-23T07:54:06.825Z,101012.09
2022-10-23T07:56:33.283Z,101007.66
2022-10-23T07:58:59.595Z,101017.38
2022-10-23T08:01:31.406Z,101010.31
2022-10-23T08:03:57.942Z,101006.78
2022-10-23T08:06:24.373Z,101013.84
2022-10-23T08:08:50.987Z,100991.78
2022-10-23T08:11:24.749Z,101002.38
2022-10-23T08:13:58.335Z,100996.19
2022-10-23T08:16:25.197Z,101001.44
2022-10-23T08:18:54.495Z,101002.31
2022-10-23T08:21:20.931Z,100992.63
2022-10-23T08:23:47.352Z,100994.38
2022-10-23T08:26:16.879Z,100988.19
2022-10-23T08:28:43.220Z,100990.78
2022-10-23T08:31:13.070Z,100978.44
2022-10-23T08:33:40.275Z,100979.34
2022-10-23T08:36:23.596Z,100974.00
2022-10-23T08:38:53.499Z,100982.81
2022-10-23T08:41:28.063Z,100974.88
2022-10-23T08:44:40.932Z,100963.41
2022-10-23T08:47:19.571Z,100955.47
2022-10-23T08:50:03.695Z,100949.28
2022-10-23T08:52:34.495Z,100948.41
2022-10-23T08:55:03.437Z,100943.97
2022-10-23T08:57:43.721Z,100946.59
2022-10-23T09:00:15.978Z,100936.88
2022-10-23T09:02:46.633Z,100928.09
2022-10-23T09:05:21.405Z,100934.22
2022-10-23T09:07:56.204Z,100923.59
2022-10-23T09:10:58.007Z,100923.53
2022-10-23T09:13:30.489Z,100927.91
2022-10-23T09:16:36.040Z,100918.16
2022-10-23T09:19:08.767Z,100920.78
2022-10-23T09:21:37.692Z,100907.50
2022-10-23T09:24:04.301Z,100909.22
2022-10-23T09:26:30.653Z,100907.41
2022-10-23T09:29:07.649Z,100900.34
2022-10-23T09:31:33.966Z,100905.59
2022-10-23T09:34:01.781Z,100902.06
2022-10-23T09:36:29.379Z,100902.91
2022-10-23T09:39:00.540Z,100892.31
2022-10-23T09:41:35.538Z,100893.19
2022-10-23T09:44:08.632Z,100879.06
2022-10-23T09:46:42.741Z,100881.69
2022-10-23T09:49:30.074Z,100886.97
2022-10-23T09:52:09.948Z,100881.66
2022-10-23T09:54:46.193Z,100882.50
2022-10-23T09:57:38.622Z,100878.09
2022-10-23T10:00:07.833Z,100867.50
2022-10-23T10:02:36.888Z,100882.44
2022-10-23T10:05:24.485Z,100876.25
2022-10-23T10:08:06.846Z,100866.53
2022-10-23T10:10:42.163Z,100861.19
2022-10-23T10:13:56.359Z,100871.75
2022-10-23T10:16:35.719Z,100857.59
2022-10-23T10:19:13.788Z,100850.56
2022-10-23T10:21:54.986Z,100856.63
2022-10-23T10:24:30.141Z,100853.94
2022-10-23T10:27:18.842Z,100847.72
2022-10-23T10:30:10.374Z,100839.75
2022-10-23T10:32:45.529Z,100840.56
2022-10-23T10:35:37.147Z,100827.31
2022-10-23T10:38:24.608Z,100818.44
2022-10-23T10:40:53.972Z,100827.22
2022-10-23T10:43:26.224Z,100813.09
2022-10-23T10:46:18.648Z,100804.19
2022-10-23T10:49:07.374Z,100789.97
2022-10-23T10:52:10.257Z,100799.63
2022-10-23T10:55:01.975Z,100795.19
2022-10-23T10:58:02.440Z,100794.22
2022-10-23T11:00:31.380Z,100782.75
2022-10-23T11:03:04.670Z,100780.94
2022-10-23T11:05:38.213Z,100775.56
2022-10-23T11:08:13.502Z,100759.66
2022-10-23T11:10:45.895Z,100766.63
2022-10-23T11:13:36.324Z,100757.75
2022-10-23T11:16:13.352Z,100757.69
2022-10-23T11:18:46.803Z,100753.25
2022-10-23T11:21:26.604Z,100742.53
2022-10-23T11:24:11.124Z,100737.22
2022-10-23T11:27:18.798Z,100725.56
2022-10-23T11:30:18.683Z,100716.63
2022-10-23T11:33:06.416Z,100714.78
2022-10-23T11:35:51.669Z,100697.94
2022-10-23T11:38:31.878Z,100696.09
2022-10-23T11:41:02.279Z,100689.75
2022-10-23T11:43:57.424Z,100689.56
2022-10-23T11:46:24.561Z,100678.00
2022-10-23T11:48:52.085Z,100685.78
2022-10-23T11:51:31.377Z,100669.75
2022-10-23T11:54:16.054Z,100662.44
2022-10-23T11:57:10.413Z,100655.09
2022-10-23T11:59:48.958Z,100658.25
2022-10-23T12:02:38.129Z,100661.41
2022-10-23T12:05:08.616Z,100646.97
2022-10-23T12:07:38.507Z,100634.25
2022-10-23T12:10:07.996Z,100639.31
2022-10-23T12:12:43.056Z,100642.63
2022-10-23T12:15:14.463Z,100639.78
2022-10-23T12:17:45.266Z,100630.88
2022-10-23T12:20:22.940Z,100634.47
2022-10-23T12:23:19.856Z,100628.38
2022-10-23T12:26:07.940Z,100620.41
2022-10-23T12:28:48.698Z,100615.97
2022-10-23T12:31:33.320Z,100601.72
2022-10-23T12:34:18.495Z,100584.91
2022-10-23T12:37:14.646Z,100580.41
2022-10-23T12:39:42.050Z,100576.00
2022-10-23T12:42:29.358Z,100586.59
2022-10-23T12:45:03.258Z,100587.47
2022-10-23T12:47:30.319Z,100576.81
2022-10-23T12:49:56.734Z,100578.56
2022-10-23T12:52:25.186Z,100571.50
2022-10-23T12:54:51.978Z,100572.44
2022-10-23T12:57:25.462Z,100568.03
2022-10-23T12:59:56.665Z,100560.91
2022-10-23T13:02:29.203Z,100556.44
2022-10-23T13:04:58.365Z,100561.75
2022-10-23T13:07:28.289Z,100557.31
2022-10-23T13:09:55.800Z,100551.13
2022-10-23T13:12:32.728Z,100542.09
2022-10-23T13:15:03.443Z,100528.72
2022-10-23T13:17:45.486Z,100539.13
2022-10-23T13:20:17.956Z,100530.09
2022-10-23T13:22:46.761Z,100522.00
2022-10-23T13:25:42.907Z,100522.72
2022-10-23T13:28:24.548Z,100517.28
2022-10-23T13:31:09.666Z,100500.38
2022-10-23T13:33:39.349Z,100505.59
2022-10-23T13:36:14.770Z,100496.59
2022-10-23T13:38:46.644Z,100484.94
2022-10-23T13:41:21.109Z,100474.09
2022-10-23T13:43:48.333Z,100472.31
2022-10-23T13:46:25.548Z,100469.63
2022-10-23T13:48:52.294Z,100465.13
2022-10-23T13:51:25.371Z,100444.75
2022-10-23T13:53:52.218Z,100436.66
2022-10-23T13:56:21.196Z,100440.34
2022-10-23T13:58:48.060Z,100435.78
2022-10-23T14:01:22.262Z,100440.25
2022-10-23T14:03:50.451Z,100438.41
2022-10-23T14:06:17.058Z,100434.00
2022-10-23T14:08:43.770Z,100434.00
2022-10-23T14:13:41.007Z,100429.50
2022-10-23T14:16:09.431Z,100416.16
2022-10-23T14:18:35.739Z,100422.28
2022-10-23T14:21:02.965Z,100430.19
2022-10-23T14:23:29.292Z,100423.94
2022-10-23T14:26:11.907Z,100431.72
2022-10-23T14:28:41.649Z,100404.31
2022-10-23T14:31:15.076Z,100419.84
2022-10-23T14:33:41.600Z,100423.38
2022-10-23T14:36:08.537Z,100426.00
2022-10-23T14:38:35.306Z,100415.13
2022-10-23T14:41:02.132Z,100422.09
2022-10-23T14:43:28.603Z,100415.84
2022-10-23T14:45:54.998Z,100432.84
2022-10-23T14:48:21.437Z,100425.88
2022-10-23T14:50:49.152Z,100417.03
2022-10-23T14:53:15.776Z,100424.16
2022-10-23T14:55:42.136Z,100415.34
2022-10-23T14:58:08.654Z,100406.59
2022-10-23T15:00:35.016Z,100391.53
2022-10-23T15:03:01.421Z,100395.13
2022-10-23T15:05:27.781Z,100390.66
2022-10-23T15:07:55.114Z,100382.78
2022-10-23T15:10:21.451Z,100389.09
2022-10-23T15:12:48.489Z,100382.13
2022-10-23T15:15:14.891Z,100372.44
2022-10-23T15:17:42.235Z,100374.31
2022-10-23T15:20:09.066Z,100372.63
2022-10-23T15:22:35.454Z,100373.59
2022-10-23T15:25:01.825Z,100378.94
2022-10-23T15:27:28.225Z,100375.53
2022-10-23T15:29:54.543Z,100365.03
2022-10-23T15:32:20.869Z,100365.91
2022-10-23T15:34:49.550Z,100364.22
2022-10-23T15:37:15.937Z,100353.66
2022-10-23T15:39:42.415Z,100358.13
2022-10-23T15:42:10.180Z,100366.16
2022-10-23T15:44:36.677Z,100353.78
2022-10-23T15:47:03.579Z,100335.19
2022-10-23T15:49:30.009Z,100328.22
2022-10-23T15:51:56.734Z,100327.41
2022-10-23T15:54:23.465Z,100323.88
2022-10-23T15:56:52.307Z,100326.56
2022-10-23T15:59:22.628Z,100327.53
2022-10-23T16:01:49.425Z,100328.50
2022-10-23T16:04:16.775Z,100318.91
2022-10-23T16:06:46.048Z,100304.75
2022-10-23T16:09:12.615Z,100319.75
2022-10-23T16:11:41.367Z,100308.28
2022-10-23T16:14:09.489Z,100310.19
2022-10-23T16:16:35.979Z,100304.81
2022-10-23T16:19:04.652Z,100305.72
2022-10-23T16:21:34.881Z,100320.00
2022-10-23T16:24:02.907Z,100321.75
2022-10-23T16:26:29.976Z,100319.16
2022-10-23T16:29:01.419Z,100317.34
2022-10-23T16:31:28.636Z,100319.03
2022-10-23T16:36:29.386Z,100318.19
2022-10-23T16:38:56.203Z,100308.44
2022-10-23T16:41:22.573Z,100309.38
2022-10-23T16:43:49.221Z,100295.22
2022-10-23T16:46:19.222Z,100298.84
2022-10-23T16:48:45.946Z,100300.56
2022-10-23T16:51:15.295Z,100290.88
2022-10-23T16:53:42.597Z,100283.72
2022-10-23T16:56:15.072Z,100265.97
2022-10-23T16:58:42.287Z,100273.00
2022-10-23T17:01:19.870Z,100272.19
2022-10-23T17:03:48.372Z,100263.34
2022-10-23T17:06:18.572Z,100256.31
2022-10-23T17:08:45.228Z,100269.72
2022-10-23T17:11:14.459Z,100267.94
2022-10-23T17:13:44.207Z,100276.81
2022-10-23T17:16:13.519Z,100280.38
2022-10-23T17:18:43.713Z,100292.81
2022-10-23T17:21:12.077Z,100276.88
2022-10-23T17:23:40.948Z,100277.78
2022-10-23T17:26:12.854Z,100278.66
2022-10-23T17:28:42.138Z,100282.13
2022-10-23T17:31:23.088Z,100269.75
2022-10-23T17:33:52.541Z,100267.94
2022-10-23T17:36:20.949Z,100272.47
2022-10-23T17:38:48.270Z,100286.66
2022-10-23T17:41:16.866Z,100269.03
2022-10-23T17:43:43.529Z,100268.97
2022-10-23T17:46:11.671Z,100261.03
2022-10-23T17:48:43.695Z,100264.66
2022-10-23T17:51:12.612Z,100268.25
2022-10-23T17:53:44.542Z,100268.25
2022-10-23T17:56:18.993Z,100257.63
2022-10-23T17:58:46.877Z,100275.38
2022-10-23T18:01:15.949Z,100263.84
2022-10-23T18:03:42.490Z,100268.28
2022-10-23T18:06:17.341Z,100257.63
2022-10-23T18:08:44.440Z,100286.81
2022-10-23T18:11:20.153Z,100270.00
2022-10-23T18:13:46.761Z,100256.75
2022-10-23T18:16:14.269Z,100255.00
2022-10-23T18:18:42.754Z,100252.34
2022-10-23T18:21:09.884Z,100274.47
2022-10-23T18:23:39.197Z,100262.94
2022-10-23T18:26:05.956Z,100252.34
2022-10-23T18:28:32.484Z,100235.44
2022-10-23T18:30:58.885Z,100233.59
2022-10-23T18:33:26.459Z,100248.56
2022-10-23T18:35:52.824Z,100253.91
2022-10-23T18:38:19.185Z,100258.34
2022-10-23T18:40:53.573Z,100263.56
2022-10-23T18:43:31.274Z,100260.88
2022-10-23T18:46:05.695Z,100243.16
2022-10-23T18:48:32.106Z,100225.38
2022-10-23T18:50:58.515Z,100233.38
2022-10-23T18:53:24.927Z,100228.13
2022-10-23T18:55:51.490Z,100217.53
2022-10-23T18:58:19.102Z,100233.59
2022-10-23T19:00:46.079Z,100239.03
2022-10-23T19:03:14.164Z,100211.63
2022-10-23T19:05:45.667Z,100210.78
2022-10-23T19:08:12.813Z,100232.25
2022-10-23T19:10:42.177Z,100215.56
2022-10-23T19:13:08.516Z,100204.22
2022-10-23T19:15:36.783Z,100200.75
2022-10-23T19:18:06.371Z,100241.59
2022-10-23T19:20:33.154Z,100234.56
2022-10-23T19:23:01.889Z,100257.63
2022-10-23T19:25:32.345Z,100270.97
2022-10-23T19:28:00.347Z,100287.81
2022-10-23T19:30:27.328Z,100288.66
2022-10-23T19:32:53.737Z,100300.22
2022-10-23T19:35:21.343Z,100291.31
2022-10-23T19:37:48.136Z,100293.97
2022-10-23T19:40:15.553Z,100300.28
2022-10-23T19:42:43.169Z,100300.34
2022-10-23T19:45:12.482Z,100299.47
2022-10-23T19:47:38.949Z,100296.09
2022-10-23T19:50:07.171Z,100300.47
2022-10-23T19:52:34.569Z,100254.53
2022-10-23T19:55:01.286Z,100314.78
2022-10-23T19:57:30.292Z,100331.59
2022-10-23T19:59:56.626Z,100299.59
2022-10-23T20:02:23.092Z,100280.91
2022-10-23T20:04:49.597Z,100321.63
2022-10-23T20:07:16.189Z,100305.78
2022-10-23T20:09:49.923Z,100314.69
2022-10-23T20:12:16.393Z,100320.09
2022-10-23T20:14:42.835Z,100327.16
2022-10-23T20:17:09.181Z,100325.53
2022-10-23T20:19:35.545Z,100319.47
2022-10-23T20:22:01.998Z,100322.13
2022-10-23T20:24:28.331Z,100324.13
2022-10-23T20:26:55.914Z,100319.88
2022-10-23T20:29:23.106Z,100320.81
2022-10-23T20:31:49.460Z,100315.50
2022-10-23T20:34:16.040Z,100312.94
2022-10-23T20:36:47.313Z,100320.94
2022-10-23T20:39:20.769Z,100321.03
2022-10-23T20:41:47.723Z,100322.03
2022-10-23T20:46:49.342Z,100327.59
2022-10-23T20:49:16.391Z,100325.13
2022-10-23T20:51:42.990Z,100337.66
2022-10-23T20:54:09.378Z,100334.19
2022-10-23T20:56:38.931Z,100337.78
2022-10-23T20:59:12.676Z,100331.72
2022-10-23T21:01:41.570Z,100334.47
2022-10-23T21:04:08.391Z,100338.94
2022-10-23T21:06:46.105Z,100338.09
2022-10-23T21:09:21.480Z,100337.22
2022-10-23T21:11:47.881Z,100336.38
2022-10-23T21:14:14.239Z,100339.97
2022-10-23T21:16:44.240Z,100334.75
2022-10-23T21:19:13.961Z,100331.25
2022-10-23T21:21:40.274Z,100332.09
2022-10-23T21:24:10.612Z,100336.56
2022-10-23T21:26:37.492Z,100331.25
2022-10-23T21:29:17.955Z,100334.88
2022-10-23T21:31:45.120Z,100338.47
2022-10-23T21:37:10.750Z,100341.13
2022-10-23T21:39:32.475Z,100331.47
2022-10-23T21:42:01.423Z,100320.09
2022-10-23T21:44:27.742Z,100326.09
2022-10-23T21:46:54.104Z,100333.16
2022-10-23T21:49:20.717Z,100327.94
2022-10-23T21:51:47.364Z,100325.28
2022-10-23T21:54:17.038Z,100327.09
2022-10-23T21:56:46.258Z,100324.50
2022-10-23T21:59:14.779Z,100341.28
2022-10-23T22:01:43.832Z,100340.47
2022-10-23T22:04:11.871Z,100337.84
2022-10-23T22:06:38.765Z,100359.06
2022-10-23T22:09:08.475Z,100379.47
2022-10-23T22:11:35.070Z,100373.22
2022-10-23T22:14:04.578Z,100351.22
2022-10-23T22:16:31.262Z,100349.53
2022-10-23T22:18:57.766Z,100339.88
2022-10-23T22:21:27.282Z,100341.75
2022-10-23T22:23:56.219Z,100331.28
2022-10-23T22:26:31.672Z,100339.25
2022-10-23T22:29:00.552Z,100337.53
2022-10-23T22:31:29.428Z,100327.94
2022-10-23T22:33:57.003Z,100329.69
2022-10-23T22:36:24.060Z,100329.69
2022-10-23T22:38:50.524Z,100320.88
2022-10-23T22:41:20.464Z,100313.84
2022-10-23T22:43:46.842Z,100312.03
2022-10-23T22:46:15.729Z,100331.47
2022-10-23T22:48:45.661Z,100330.53
2022-10-23T22:51:16.878Z,100326.16
2022-10-23T22:53:43.918Z,100325.41
2022-10-23T22:56:13.940Z,100326.16
2022-10-23T22:58:40.473Z,100311.97
2022-10-23T23:01:06.807Z,100307.53
2022-10-23T23:03:35.636Z,100317.19
2022-10-23T23:06:04.021Z,100311.84
2022-10-23T23:08:30.426Z,100307.34
2022-10-23T23:10:57.721Z,100311.63
2022-10-23T23:13:24.924Z,100309.75
2022-10-23T23:15:51.837Z,100302.72
2022-10-23T23:18:18.250Z,100299.16
2022-10-23T23:20:44.670Z,100292.03
2022-10-23T23:23:12.388Z,100285.91
2022-10-23T23:25:43.671Z,100285.03
2022-10-23T23:28:19.462Z,100286.91
2022-10-23T23:33:23.564Z,100282.59
2022-10-23T23:35:49.889Z,100273.84
2022-10-23T23:38:16.219Z,100285.38
2022-10-23T23:40:50.705Z,100268.69
2022-10-23T23:43:19.435Z,100274.94
2022-10-23T23:45:46.041Z,100278.47
2022-10-23T23:48:12.394Z,100284.72
2022-10-23T23:50:39.656Z,100267.94
2022-10-23T23:53:06.047Z,100266.16
2022-10-23T23:55:32.430Z,100268.72
2022-10-23T23:58:01.749Z,100265.19
